createdAt,value
2023-02-24T00:00:32.560Z,18.65
2023-02-24T00:03:37.718Z,16.53
2023-02-24T00:06:43.719Z,13.38
2023-02-24T00:09:46.657Z,11.52
2023-02-24T00:12:49.483Z,9.65
2023-02-24T00:16:01.035Z,9.63
2023-02-24T00:19:07.519Z,9.40
2023-02-24T00:22:10.156Z,10.35
2023-02-24T00:25:12.652Z,8.23
2023-02-24T00:28:15.177Z,9.18
2023-02-24T00:31:20.482Z,10.18
2023-02-24T00:34:23.949Z,8.17
2023-02-24T00:37:26.547Z,8.88
2023-02-24T00:40:30.462Z,9.25
2023-02-24T00:43:37.429Z,8.98
2023-02-24T00:46:45.071Z,8.50
2023-02-24T00:49:48.323Z,9.10
2023-02-24T00:52:50.928Z,8.85
2023-02-24T00:56:00.549Z,9.40
2023-02-24T00:59:03.984Z,9.27
2023-02-24T01:02:08.404Z,8.93
2023-02-24T01:05:12.202Z,7.63
2023-02-24T01:08:21.515Z,9.68
2023-02-24T01:11:51.528Z,8.70
2023-02-24T01:14:54.113Z,9.07
2023-02-24T01:17:56.744Z,8.70
2023-02-24T01:20:59.390Z,9.07
2023-02-24T01:24:02.005Z,8.82
2023-02-24T01:27:05.634Z,8.80
2023-02-24T01:30:16.088Z,8.55
2023-02-24T01:33:19.036Z,9.20
2023-02-24T01:36:25.808Z,8.43
2023-02-24T01:39:30.275Z,9.07
2023-02-24T01:42:32.975Z,8.48
2023-02-24T01:45:40.189Z,8.75
2023-02-24T01:48:42.737Z,8.23
2023-02-24T01:51:59.196Z,9.37
2023-02-24T01:55:16.643Z,8.57
2023-02-24T01:58:26.781Z,8.98
2023-02-24T02:01:40.499Z,9.05
2023-02-24T02:05:16.112Z,9.32
2023-02-24T02:08:21.579Z,8.53
2023-02-24T02:11:24.276Z,7.50
2023-02-24T02:14:29.504Z,8.32
2023-02-24T02:17:41.033Z,8.38
2023-02-24T02:21:09.385Z,8.73
2023-02-24T02:24:52.353Z,9.13
2023-02-24T02:28:26.773Z,8.68
2023-02-24T02:31:56.945Z,8.02
2023-02-24T02:35:24.890Z,8.30
2023-02-24T02:38:57.591Z,8.43
2023-02-24T02:42:27.680Z,7.73
2023-02-24T02:45:41.169Z,8.00
2023-02-24T02:48:58.209Z,8.50
2023-02-24T02:52:10.544Z,8.20
2023-02-24T02:55:23.931Z,8.57
2023-02-24T02:58:31.934Z,7.90
2023-02-24T03:01:39.226Z,7.88
2023-02-24T03:04:51.304Z,9.05
2023-02-24T03:07:56.932Z,8.07
2023-02-24T03:11:03.031Z,8.27
2023-02-24T03:14:07.817Z,7.93
2023-02-24T03:17:21.559Z,9.02
2023-02-24T03:20:33.015Z,9.25
2023-02-24T03:23:40.172Z,7.97
2023-02-24T03:26:54.123Z,8.50
2023-02-24T03:30:07.561Z,8.37
2023-02-24T03:33:18.127Z,8.55
2023-02-24T03:36:21.013Z,8.48
2023-02-24T03:39:24.509Z,8.57
2023-02-24T03:43:06.099Z,8.48
2023-02-24T03:46:09.084Z,8.70
2023-02-24T03:49:14.233Z,9.00
2023-02-24T03:52:29.266Z,9.23
2023-02-24T03:55:54.887Z,8.88
2023-02-24T03:59:25.310Z,8.88
2023-02-24T04:02:33.103Z,9.20
2023-02-24T04:05:47.723Z,9.65
2023-02-24T04:09:01.519Z,9.13
2023-02-24T04:12:13.908Z,9.45
2023-02-24T04:15:29.713Z,8.38
2023-02-24T04:18:33.415Z,8.33
2023-02-24T04:21:38.217Z,7.93
2023-02-24T04:24:44.542Z,8.70
2023-02-24T04:27:48.155Z,8.20
2023-02-24T04:30:58.962Z,8.35
2023-02-24T04:34:02.003Z,8.50
2023-02-24T04:37:11.517Z,8.65
2023-02-24T04:40:18.384Z,8.35
2023-02-24T04:43:21.008Z,9.00
2023-02-24T04:46:23.649Z,8.43
2023-02-24T04:49:26.847Z,9.17
2023-02-24T04:52:29.308Z,9.20
2023-02-24T04:55:33.431Z,8.18
2023-02-24T04:58:38.194Z,8.00
2023-02-24T05:01:44.339Z,7.53
2023-02-24T05:04:49.766Z,8.27
2023-02-24T05:07:57.312Z,9.30
2023-02-24T05:11:04.063Z,9.00
2023-02-24T05:14:07.939Z,9.00
2023-02-24T05:17:12.887Z,8.38
2023-02-24T05:20:34.016Z,9.03
2023-02-24T05:23:40.114Z,9.27
2023-02-24T05:26:42.848Z,9.13
2023-02-24T05:29:45.518Z,9.38
2023-02-24T05:32:48.096Z,9.23
2023-02-24T05:35:53.930Z,8.47
2023-02-24T05:39:07.939Z,9.63
2023-02-24T05:42:11.715Z,9.95
2023-02-24T05:45:14.329Z,8.60
2023-02-24T05:48:17.015Z,9.15
2023-02-24T05:51:19.807Z,9.03
2023-02-24T05:54:31.477Z,10.18
2023-02-24T05:57:35.793Z,11.20
2023-02-24T06:00:39.886Z,10.20
2023-02-24T06:03:48.102Z,11.43
2023-02-24T06:06:52.594Z,10.03
2023-02-24T06:09:57.859Z,10.23
2023-02-24T06:13:02.385Z,10.07
2023-02-24T06:16:06.896Z,10.48
2023-02-24T06:19:12.289Z,10.93
2023-02-24T06:22:17.100Z,14.70
2023-02-24T06:25:21.258Z,13.40
2023-02-24T06:28:25.172Z,12.25
2023-02-24T06:31:28.304Z,9.75
2023-02-24T06:34:31.524Z,10.50
2023-02-24T06:37:35.944Z,10.80
2023-02-24T06:40:38.738Z,10.32
2023-02-24T06:43:43.547Z,10.07
2023-02-24T06:46:46.379Z,10.20
2023-02-24T06:49:53.679Z,11.50
2023-02-24T06:53:00.929Z,11.20
2023-02-24T06:56:15.198Z,11.45
2023-02-24T06:59:28.526Z,11.43
2023-02-24T07:02:40.715Z,10.30
2023-02-24T07:05:50.443Z,10.25
2023-02-24T07:08:53.500Z,10.37
2023-02-24T07:11:57.012Z,12.10
2023-02-24T07:15:05.396Z,13.40
2023-02-24T07:18:15.245Z,13.43
2023-02-24T07:21:23.549Z,12.65
2023-02-24T07:24:37.617Z,12.30
2023-02-24T07:27:40.593Z,12.18
2023-02-24T07:31:26.773Z,12.27
2023-02-24T07:34:33.891Z,10.82
2023-02-24T07:37:36.819Z,13.52
2023-02-24T07:40:54.776Z,12.50
2023-02-24T07:44:00.172Z,12.60
2023-02-24T07:47:08.088Z,12.95
2023-02-24T07:50:14.949Z,14.02
2023-02-24T07:53:19.091Z,13.45
2023-02-24T07:56:27.087Z,13.43
2023-02-24T07:59:37.716Z,14.25
2023-02-24T08:02:40.431Z,14.75
2023-02-24T08:05:43.730Z,14.32
2023-02-24T08:08:59.053Z,13.80
2023-02-24T08:12:01.684Z,14.30
2023-02-24T08:15:17.314Z,14.73
2023-02-24T08:18:21.511Z,14.35
2023-02-24T08:21:27.578Z,15.60
2023-02-24T08:24:30.435Z,14.07
2023-02-24T08:27:39.173Z,14.37
2023-02-24T08:30:46.163Z,15.80
2023-02-24T08:33:48.977Z,16.40
2023-02-24T08:36:55.974Z,15.38
2023-02-24T08:39:58.914Z,14.52
2023-02-24T08:43:31.233Z,14.73
2023-02-24T08:46:38.002Z,14.73
2023-02-24T08:49:41.440Z,14.50
2023-02-24T08:52:48.193Z,14.88
2023-02-24T08:55:52.106Z,16.38
2023-02-24T08:59:07.273Z,16.80
2023-02-24T09:02:19.477Z,15.95
2023-02-24T09:05:29.799Z,14.73
2023-02-24T09:08:42.789Z,16.02
2023-02-24T09:11:57.200Z,15.20
2023-02-24T09:15:07.710Z,16.33
2023-02-24T09:18:14.595Z,17.13
2023-02-24T09:21:36.527Z,16.35
2023-02-24T09:24:40.184Z,15.63
2023-02-24T09:28:09.438Z,15.70
2023-02-24T09:31:17.457Z,14.57
2023-02-24T09:34:30.159Z,17.27
2023-02-24T09:37:34.279Z,15.77
2023-02-24T09:40:40.399Z,15.70
2023-02-24T09:43:44.554Z,16.00
2023-02-24T09:46:54.531Z,14.73
2023-02-24T09:50:14.335Z,15.70
2023-02-24T09:53:20.112Z,16.27
2023-02-24T09:56:29.134Z,16.30
2023-02-24T10:00:01.670Z,15.85
2023-02-24T10:03:44.136Z,15.53
2023-02-24T10:06:58.016Z,14.50
2023-02-24T10:10:25.976Z,15.35
2023-02-24T10:13:32.871Z,15.98
2023-02-24T10:16:43.530Z,15.70
2023-02-24T10:19:56.548Z,16.03
2023-02-24T10:23:09.852Z,16.23
2023-02-24T10:26:33.205Z,16.58
2023-02-24T10:30:05.164Z,16.65
2023-02-24T10:33:20.820Z,17.08
2023-02-24T10:36:35.773Z,15.60
2023-02-24T10:39:43.734Z,14.98
2023-02-24T10:42:48.983Z,15.60
2023-02-24T10:46:06.427Z,17.85
2023-02-24T10:49:14.692Z,17.10
2023-02-24T10:52:37.164Z,16.00
2023-02-24T10:55:47.519Z,16.98
2023-02-24T10:59:23.251Z,15.90
2023-02-24T11:02:30.266Z,16.35
2023-02-24T11:06:06.485Z,16.75
2023-02-24T11:09:30.281Z,15.97
2023-02-24T11:12:55.619Z,16.90
2023-02-24T11:16:21.861Z,17.42
2023-02-24T11:19:29.969Z,17.23
2023-02-24T11:22:39.760Z,16.50
2023-02-24T11:25:47.186Z,17.07
2023-02-24T11:29:17.641Z,16.08
2023-02-24T11:32:55.047Z,17.17
2023-02-24T11:36:05.357Z,16.35
2023-02-24T11:39:35.219Z,15.15
2023-02-24T11:42:46.296Z,16.80
2023-02-24T11:46:11.888Z,17.83
2023-02-24T11:49:37.368Z,15.95
2023-02-24T11:52:47.186Z,16.10
2023-02-24T11:55:59.228Z,15.85
2023-02-24T11:59:30.246Z,15.73
2023-02-24T12:02:52.006Z,15.63
2023-02-24T12:05:58.742Z,15.80
2023-02-24T12:09:15.631Z,16.13
2023-02-24T12:12:32.556Z,14.90
2023-02-24T12:16:03.149Z,13.70
2023-02-24T12:19:31.876Z,14.93
2023-02-24T12:22:51.683Z,14.13
2023-02-24T12:26:31.708Z,15.25
2023-02-24T12:29:58.303Z,14.95
2023-02-24T12:33:31.744Z,15.40
2023-02-24T12:36:44.280Z,16.13
2023-02-24T12:40:23.507Z,16.55
2023-02-24T12:43:52.503Z,16.60
2023-02-24T12:47:12.529Z,14.27
2023-02-24T12:50:43.505Z,15.77
2023-02-24T12:54:19.971Z,14.68
2023-02-24T12:57:25.493Z,15.82
2023-02-24T13:00:49.224Z,16.58
2023-02-24T13:03:55.450Z,15.98
2023-02-24T13:07:31.852Z,16.37
2023-02-24T13:10:44.098Z,16.38
2023-02-24T13:13:59.392Z,17.55
2023-02-24T13:17:10.871Z,17.48
2023-02-24T13:20:15.201Z,16.77
2023-02-24T13:23:22.169Z,15.90
2023-02-24T13:26:26.131Z,17.48
2023-02-24T13:29:28.678Z,17.27
2023-02-24T13:32:35.040Z,17.55
2023-02-24T13:35:38.779Z,18.52
2023-02-24T13:38:46.804Z,17.00
2023-02-24T13:41:50.001Z,16.65
2023-02-24T13:45:17.605Z,17.20
2023-02-24T13:48:54.206Z,16.77
2023-02-24T13:52:04.253Z,15.68
2023-02-24T13:55:24.266Z,17.23
2023-02-24T13:58:54.360Z,17.77
2023-02-24T14:02:03.769Z,17.38
2023-02-24T14:05:16.727Z,15.60
2023-02-24T14:08:25.824Z,16.27
2023-02-24T14:11:35.815Z,16.73
2023-02-24T14:14:39.839Z,16.50
2023-02-24T14:17:42.550Z,16.05
2023-02-24T14:20:45.398Z,17.05
2023-02-24T14:24:09.856Z,14.85
2023-02-24T14:27:26.504Z,16.00
2023-02-24T14:30:33.614Z,16.15
2023-02-24T14:33:38.909Z,15.00
2023-02-24T14:36:45.175Z,16.35
2023-02-24T14:39:57.062Z,16.50
2023-02-24T14:43:00.362Z,14.40
2023-02-24T14:46:06.301Z,13.25
2023-02-24T14:49:19.262Z,13.05
2023-02-24T14:52:30.768Z,13.07
2023-02-24T14:55:37.775Z,13.45
2023-02-24T14:58:48.814Z,13.17
2023-02-24T15:01:55.733Z,13.43
2023-02-24T15:04:59.612Z,13.77
2023-02-24T15:08:04.047Z,13.98
2023-02-24T15:11:19.582Z,13.25
2023-02-24T15:14:31.894Z,13.43
2023-02-24T15:17:40.376Z,13.15
2023-02-24T15:20:43.239Z,14.43
2023-02-24T15:23:47.612Z,13.35
2023-02-24T15:27:14.789Z,15.63
2023-02-24T15:30:34.607Z,14.97
2023-02-24T15:33:40.445Z,15.45
2023-02-24T15:36:43.211Z,15.05
2023-02-24T15:39:46.066Z,14.57
2023-02-24T15:42:57.844Z,15.90
2023-02-24T15:46:00.797Z,15.07
2023-02-24T15:49:05.223Z,14.23
2023-02-24T15:52:10.845Z,14.68
2023-02-24T15:55:18.155Z,14.43
2023-02-24T15:58:22.548Z,14.05
2023-02-24T16:01:26.316Z,13.60
2023-02-24T16:04:29.083Z,13.25
2023-02-24T16:07:37.064Z,13.93
2023-02-24T16:10:40.992Z,14.63
2023-02-24T16:13:48.740Z,14.05
2023-02-24T16:16:51.701Z,15.77
2023-02-24T16:19:57.153Z,15.02
2023-02-24T16:23:04.020Z,14.27
2023-02-24T16:26:13.446Z,14.32
2023-02-24T16:29:17.951Z,15.13
2023-02-24T16:32:23.888Z,15.63
2023-02-24T16:35:28.304Z,14.98
2023-02-24T16:38:31.268Z,16.55
2023-02-24T16:41:33.914Z,15.50
2023-02-24T16:44:37.146Z,15.27
2023-02-24T16:47:40.269Z,16.43
2023-02-24T16:50:44.244Z,15.40
2023-02-24T16:53:49.504Z,17.08
2023-02-24T16:56:54.357Z,16.67
2023-02-24T16:59:57.001Z,16.55
2023-02-24T17:03:25.006Z,16.87
2023-02-24T17:06:30.332Z,19.15
2023-02-24T17:09:33.771Z,17.02
2023-02-24T17:12:36.464Z,17.95
2023-02-24T17:15:44.338Z,18.73
2023-02-24T17:18:47.499Z,17.93
2023-02-24T17:21:49.999Z,18.45
2023-02-24T17:24:52.633Z,18.58
2023-02-24T17:27:57.350Z,17.83
2023-02-24T17:31:00.404Z,18.27
2023-02-24T17:34:06.345Z,17.63
2023-02-24T17:37:10.167Z,17.75
2023-02-24T17:40:15.359Z,16.70
2023-02-24T17:43:19.239Z,16.73
2023-02-24T17:46:22.656Z,16.92
2023-02-24T17:49:25.369Z,19.33
2023-02-24T17:52:29.661Z,18.05
2023-02-24T17:55:32.602Z,15.73
2023-02-24T17:58:36.024Z,14.75
2023-02-24T18:01:39.176Z,14.82
2023-02-24T18:04:42.396Z,13.53
2023-02-24T18:07:45.056Z,13.85
2023-02-24T18:10:47.958Z,12.20
2023-02-24T18:13:52.814Z,11.77
2023-02-24T18:16:56.770Z,11.63
2023-02-24T18:19:59.686Z,12.60
2023-02-24T18:23:02.397Z,11.35
2023-02-24T18:26:07.344Z,12.38
2023-02-24T18:29:11.543Z,14.05
2023-02-24T18:32:14.618Z,14.73
2023-02-24T18:35:22.268Z,20.33
2023-02-24T18:38:25.387Z,21.77
2023-02-24T18:41:28.710Z,20.85
2023-02-24T18:44:31.627Z,21.90
2023-02-24T18:47:34.399Z,19.17
2023-02-24T18:50:37.208Z,19.97
2023-02-24T18:53:40.992Z,18.80
2023-02-24T18:56:43.920Z,18.13
2023-02-24T18:59:51.058Z,16.92
2023-02-24T19:02:54.088Z,16.50
2023-02-24T19:05:57.730Z,14.57
2023-02-24T19:09:09.802Z,14.68
2023-02-24T19:12:12.810Z,15.13
2023-02-24T19:15:17.770Z,14.00
2023-02-24T19:18:20.548Z,16.00
2023-02-24T19:21:28.883Z,14.90
2023-02-24T19:24:31.692Z,14.82
2023-02-24T19:27:35.802Z,13.95
2023-02-24T19:30:39.492Z,13.70
2023-02-24T19:33:42.373Z,13.63
2023-02-24T19:36:45.996Z,11.57
2023-02-24T19:39:48.721Z,12.60
2023-02-24T19:42:53.167Z,10.43
2023-02-24T19:45:56.222Z,9.32
2023-02-24T19:49:00.352Z,10.13
2023-02-24T19:52:06.345Z,9.63
2023-02-24T19:55:11.356Z,11.13
2023-02-24T19:58:14.082Z,10.73
2023-02-24T20:01:17.141Z,13.00
2023-02-24T20:04:21.031Z,11.45
2023-02-24T20:07:24.507Z,10.60
2023-02-24T20:10:27.461Z,10.25
2023-02-24T20:13:31.422Z,10.65
2023-02-24T20:16:36.797Z,10.27
2023-02-24T20:19:39.618Z,9.82
2023-02-24T20:22:42.886Z,10.83
2023-02-24T20:25:52.342Z,10.50
2023-02-24T20:28:56.175Z,12.60
2023-02-24T20:32:00.025Z,10.77
2023-02-24T20:35:02.986Z,10.43
2023-02-24T20:38:06.699Z,10.30
2023-02-24T20:41:10.049Z,9.93
2023-02-24T20:44:12.690Z,10.88
2023-02-24T20:47:17.069Z,11.90
2023-02-24T20:50:22.560Z,10.35
2023-02-24T20:53:25.329Z,11.33
2023-02-24T20:56:33.150Z,11.38
2023-02-24T20:59:40.130Z,13.15
2023-02-24T21:02:43.738Z,11.52
2023-02-24T21:05:46.447Z,10.60
2023-02-24T21:08:49.443Z,9.93
2023-02-24T21:11:52.306Z,12.45
2023-02-24T21:14:54.909Z,12.52
2023-02-24T21:17:57.922Z,10.32
2023-02-24T21:21:00.498Z,10.73
2023-02-24T21:24:03.081Z,9.80
2023-02-24T21:27:05.869Z,10.45
2023-02-24T21:30:09.558Z,10.38
2023-02-24T21:33:13.130Z,11.00
2023-02-24T21:36:16.684Z,11.25
2023-02-24T21:39:20.941Z,10.63
2023-02-24T21:42:23.508Z,10.38
2023-02-24T21:45:27.808Z,10.93
2023-02-24T21:48:30.285Z,10.27
2023-02-24T21:51:34.148Z,11.98
2023-02-24T21:54:37.347Z,11.47
2023-02-24T21:57:46.621Z,11.48
2023-02-24T22:00:49.419Z,11.00
2023-02-24T22:04:00.036Z,11.98
2023-02-24T22:07:02.667Z,10.90
2023-02-24T22:10:05.738Z,10.70
2023-02-24T22:13:08.661Z,11.40
2023-02-24T22:16:20.361Z,11.88
2023-02-24T22:19:22.969Z,9.98
2023-02-24T22:22:25.542Z,10.55
2023-02-24T22:25:27.997Z,11.40
2023-02-24T22:28:33.350Z,10.40
2023-02-24T22:31:39.691Z,10.32
2023-02-24T22:34:42.265Z,10.55
2023-02-24T22:37:44.811Z,11.15
2023-02-24T22:41:02.557Z,11.67
2023-02-24T22:44:06.399Z,10.90
2023-02-24T22:47:08.952Z,11.02
2023-02-24T22:50:11.758Z,11.60
2023-02-24T22:53:14.391Z,11.23
2023-02-24T22:56:21.252Z,10.37
2023-02-24T22:59:24.098Z,10.63
2023-02-24T23:02:27.440Z,10.70
2023-02-24T23:05:30.069Z,11.05
2023-02-24T23:08:35.148Z,11.05
2023-02-24T23:11:41.321Z,12.07
2023-02-24T23:14:44.519Z,11.57
2023-02-24T23:17:49.001Z,12.57
2023-02-24T23:21:16.075Z,10.60
2023-02-24T23:24:20.973Z,11.40
2023-02-24T23:27:23.533Z,11.33
2023-02-24T23:30:26.194Z,11.25
2023-02-24T23:33:29.236Z,11.25
2023-02-24T23:36:32.223Z,10.93
2023-02-24T23:39:34.874Z,12.02
2023-02-24T23:42:38.224Z,11.80
2023-02-24T23:45:42.055Z,11.23
2023-02-24T23:48:45.851Z,10.68
2023-02-24T23:51:49.187Z,11.90
2023-02-24T23:54:52.846Z,11.60
2023-02-24T23:57:55.964Z,12.37
